메인 페이지
METAR-TAF:

METAR-TAF

공항 :

벤구리온 국제공항

텔아비브 / 벤구리온, 이스라엘

위도: 32-00N, 경도: 034-54E, 고도: 40m

현재 날씨관측

예보는 16분 전, 04:20시(UTC)에 발표되었습니다.
여러 방향의 바람 2kt
온도 25°C
습도 39%
기압 1013 hPa
시정 10km 이상
1500m 미만 상공 구름 및 적란운 없음

METAR: LLBG 220420Z VRB02KT CAVOK 25/10 Q1013 NOSIG

시각: 07:36 (04:36 UTC)

예보

예보는 5 시간 35분 전, 23:01시(UTC)에 발표되었습니다.
예보 대상 시간: 22일 00시부터 22일 24시까지 (UTC)
3kt
시정 10km 이상
1500m 미만 상공 구름 및 적란운 없음
전환 중
22일 08시부터 22일 10시까지 (UTC)
서북서10kt
전환 중
22일 16시부터 22일 18시까지 (UTC)
여러 방향의 바람 3kt
전환 중
22일 21시부터 22일 23시까지 (UTC)
동남동3kt

TAF: LLBG 212301Z 2200/2224 08003KT CAVOK BECMG 2208/2210 30010KT BECMG 2216/2218 VRB03KT BECMG 2221/2223 12003KT TX39/2212Z TN22/2203Z

4,000개 이상의 공항 관측 자료 및 예보 (METAR 및 TAF 보고).

지도상에서 검색 가능한 기상관측소가 노란 점과 빨간 점으로 표시되어 있습니다.

기상관측소 명을 보려면 표시 위로 마우스를 이동하세요.

날씨 관측과 예보를 보려면 클릭하세요.

지도 변경 : 확대하려면 엑스 표시가 있는 녹색 버튼, 축소하려면 빼기 표시가 있는 녹색 버튼, 다음 페이지의 지도를 보려면 녹색 화살표를 클릭하세요.


METAR-TAF: